Santa Mae Laura — CUQJ — position and weather

sailwx.info

Track history (hours):
 
Tides and Currents Weather Stations Pressure Air Temp Water Temp Dewpoint Dewpoint Depression Visibility Wind Speed Wind Dir Waves Ship Positions

Santa Mae Laura

Last reported at 2017-May-25 11:06 UTC. Time now 2017-May-26 05:38 UTC.
Position N 41°50' W 009°19'.

Length 24 m.

Type: Fishing. MMSI: 263432000.

Date/timePositionNaut miles runAvg speedWind from/ knotsBaromVisibWave heightAir tempDewpointWater temp
2017-May-25 11:06N 41°50' W 009°19'0 4.1
2017-May-25 11:00N 41°50' W 009°20'3 4.1
2017-May-25 10:14N 41°53' W 009°20'1 3.9
2017-May-25 10:00N 41°54' W 009°20'8 4.4
2017-May-25 08:07N 42°02' W 009°18'9 4.0
2017-May-25 05:55N 42°11' W 009°18'  
2017-May-16 19:10N 42°47' W 009°03'1 8.3
2017-May-16 19:00N 42°45' W 009°03'4 8.6
2017-May-16 18:30N 42°43' W 009°08'  
Track history (hours):
 
Tides and Currents Weather Stations Pressure Air Temp Water Temp Dewpoint Dewpoint Depression Visibility Wind Speed Wind Dir Waves Ship Positions

Santa Mae Laura

Last reported at 2017-May-25 11:06 UTC. Time now 2017-May-26 05:38 UTC.
Position N 41°50' W 009°19'.

Length 24 m.

Type: Fishing. MMSI: 263432000.

Date/timePositionNaut miles runAvg speedWind from/ knotsBaromVisibWave heightAir tempDewpointWater temp
2017-May-25 11:06N 41°50' W 009°19'0 4.1
2017-May-25 11:00N 41°50' W 009°20'3 4.1
2017-May-25 10:14N 41°53' W 009°20'1 3.9
2017-May-25 10:00N 41°54' W 009°20'8 4.4
2017-May-25 08:07N 42°02' W 009°18'9 4.0
2017-May-25 05:55N 42°11' W 009°18'  
2017-May-16 19:10N 42°47' W 009°03'1 8.3
2017-May-16 19:00N 42°45' W 009°03'4 8.6
2017-May-16 18:30N 42°43' W 009°08'  

Dump ship's entire track history